ΕΜΥ, Εθνική Μετεωρολογική Υπηρεσία - Δελτία Καιρού, Προγνώσεις

ΑΕΡΟΝΑΥΤΙΛΙΑ

GREEK AIRPORTS CODES

LGAV 270620Z 36012KT 320V030 9999 SCT030 16/07 Q1022 RMK NOSIG=

EUROPEAN AIRPORTS CODES

LFPO 270630Z VRB03KT 2000 BR FEW001 07/07 Q1025 TEMPO 3000 BR=